createdAt,value
2018-02-15T00:01:58.446Z,23.97
2018-02-15T00:04:26.677Z,21.33
2018-02-15T00:06:54.130Z,20.50
2018-02-15T00:09:21.589Z,24.60
2018-02-15T00:11:49.044Z,23.60
2018-02-15T00:14:16.504Z,20.70
2018-02-15T00:16:43.956Z,20.07
2018-02-15T00:19:11.421Z,24.67
2018-02-15T00:21:38.874Z,22.20
2018-02-15T00:24:06.334Z,18.93
2018-02-15T00:26:33.784Z,17.90
2018-02-15T00:29:01.264Z,22.53
2018-02-15T00:31:28.693Z,22.60
2018-02-15T00:33:56.157Z,19.97
2018-02-15T00:36:23.613Z,21.90
2018-02-15T00:47:27.190Z,19.93
2018-02-15T00:49:54.653Z,19.60
2018-02-15T00:52:22.101Z,24.07
2018-02-15T00:54:49.569Z,18.80
2018-02-15T00:57:17.026Z,18.63
2018-02-15T00:59:44.480Z,19.13
2018-02-15T01:02:11.937Z,17.70
2018-02-15T01:04:39.407Z,17.57
2018-02-15T01:07:06.848Z,18.10
2018-02-15T01:09:34.306Z,15.77
2018-02-15T01:12:01.756Z,20.80
2018-02-15T01:14:29.228Z,17.43
2018-02-15T01:16:56.678Z,16.40
2018-02-15T01:19:24.137Z,20.27
2018-02-15T01:21:51.590Z,18.30
2018-02-15T01:24:19.053Z,21.13
2018-02-15T01:26:46.513Z,17.57
2018-02-15T01:29:13.980Z,21.10
2018-02-15T01:31:42.203Z,18.40
2018-02-15T01:34:09.673Z,20.27
2018-02-15T01:36:37.885Z,19.30
2018-02-15T01:39:06.132Z,18.57
2018-02-15T01:41:33.577Z,19.87
2018-02-15T01:44:01.034Z,20.37
2018-02-15T01:46:28.488Z,19.40
2018-02-15T01:48:55.962Z,20.77
2018-02-15T01:51:23.418Z,17.63
2018-02-15T01:53:50.869Z,17.83
2018-02-15T01:56:19.931Z,19.43
2018-02-15T01:58:47.373Z,16.70
2018-02-15T02:01:14.946Z,17.03
2018-02-15T02:03:42.393Z,19.20
2018-02-15T02:06:09.862Z,18.20
2018-02-15T02:08:37.325Z,18.73
2018-02-15T02:11:04.785Z,15.43
2018-02-15T02:13:32.254Z,18.90
2018-02-15T02:15:59.700Z,16.37
2018-02-15T02:18:27.926Z,17.23
2018-02-15T02:20:56.146Z,17.07
2018-02-15T02:23:23.597Z,15.10
2018-02-15T02:25:51.078Z,15.30
2018-02-15T02:28:18.525Z,17.40
2018-02-15T02:30:45.988Z,13.73
2018-02-15T02:33:13.453Z,16.83
2018-02-15T02:35:40.923Z,14.60
2018-02-15T02:38:08.378Z,13.77
2018-02-15T02:40:35.850Z,11.57
2018-02-15T02:43:04.064Z,14.97
2018-02-15T02:45:31.561Z,12.63
2018-02-15T02:47:59.025Z,12.93
2018-02-15T02:50:26.478Z,11.80
2018-02-15T02:52:53.942Z,15.20
2018-02-15T02:55:21.385Z,13.47
2018-02-15T02:57:48.851Z,11.93
2018-02-15T03:00:16.301Z,14.00
2018-02-15T03:02:43.764Z,14.37
2018-02-15T03:05:11.225Z,13.33
2018-02-15T03:07:38.681Z,12.73
2018-02-15T03:10:06.141Z,12.47
2018-02-15T03:12:33.597Z,11.53
2018-02-15T03:15:01.050Z,10.93
2018-02-15T03:17:28.509Z,11.83
2018-02-15T03:19:55.961Z,12.30
2018-02-15T03:22:23.412Z,10.60
2018-02-15T03:24:50.875Z,10.63
2018-02-15T03:27:18.333Z,10.93
2018-02-15T03:29:45.784Z,11.63
2018-02-15T03:32:13.243Z,11.27
2018-02-15T03:34:40.698Z,11.13
2018-02-15T03:37:08.158Z,11.90
2018-02-15T03:39:35.619Z,12.20
2018-02-15T03:42:03.078Z,12.07
2018-02-15T03:44:30.525Z,14.60
2018-02-15T03:46:57.985Z,16.30
2018-02-15T03:49:25.433Z,10.63
2018-02-15T03:51:52.902Z,11.60
2018-02-15T03:54:20.357Z,11.30
2018-02-15T03:56:47.840Z,10.70
2018-02-15T03:59:15.285Z,10.90
2018-02-15T04:01:43.496Z,10.50
2018-02-15T04:04:10.960Z,10.57
2018-02-15T04:06:38.419Z,13.57
2018-02-15T04:09:05.869Z,9.90
2018-02-15T04:11:33.320Z,12.40
2018-02-15T04:14:00.778Z,9.20
2018-02-15T04:16:28.232Z,9.23
2018-02-15T04:18:55.693Z,10.57
2018-02-15T04:21:23.148Z,10.30
2018-02-15T04:23:50.610Z,8.87
2018-02-15T04:26:18.062Z,9.93
2018-02-15T04:28:45.521Z,9.07
2018-02-15T04:31:12.977Z,10.70
2018-02-15T04:33:40.433Z,8.87
2018-02-15T04:36:07.886Z,8.97
2018-02-15T04:38:35.349Z,8.60
2018-02-15T04:41:02.803Z,9.43
2018-02-15T04:43:30.255Z,8.70
2018-02-15T04:45:57.705Z,10.00
2018-02-15T04:48:25.162Z,9.93
2018-02-15T04:50:52.612Z,10.10
2018-02-15T04:53:20.073Z,8.70
2018-02-15T04:55:47.525Z,9.83
2018-02-15T04:58:15.025Z,10.60
2018-02-15T05:00:42.490Z,10.13
2018-02-15T05:03:09.950Z,10.70
2018-02-15T05:05:37.408Z,9.20
2018-02-15T05:08:04.869Z,9.37
2018-02-15T05:10:32.316Z,11.80
2018-02-15T05:12:59.769Z,11.03
2018-02-15T05:15:27.253Z,13.27
2018-02-15T05:17:55.487Z,10.23
2018-02-15T05:20:22.944Z,10.87
2018-02-15T05:22:50.406Z,11.27
2018-02-15T05:25:17.865Z,10.87
2018-02-15T05:27:45.309Z,10.87
2018-02-15T05:30:12.769Z,10.30
2018-02-15T05:32:40.221Z,11.33
2018-02-15T05:35:07.762Z,10.23
2018-02-15T05:37:35.219Z,11.10
2018-02-15T05:40:02.678Z,10.23
2018-02-15T05:42:30.132Z,12.23
2018-02-15T05:44:57.593Z,9.27
2018-02-15T05:47:25.042Z,10.47
2018-02-15T05:49:52.515Z,10.33
2018-02-15T05:52:19.965Z,12.67
2018-02-15T05:54:47.433Z,10.40
2018-02-15T05:57:14.887Z,13.23
2018-02-15T05:59:42.342Z,10.70
2018-02-15T06:02:09.793Z,14.00
2018-02-15T06:04:37.253Z,9.00
2018-02-15T06:07:04.694Z,8.03
2018-02-15T06:09:32.184Z,11.20
2018-02-15T06:11:59.596Z,8.73
2018-02-15T06:14:27.070Z,9.67
2018-02-15T06:16:54.541Z,9.10
2018-02-15T06:19:21.980Z,10.27
2018-02-15T06:21:49.474Z,11.43
2018-02-15T06:24:16.898Z,10.43
2018-02-15T06:26:44.357Z,10.97
2018-02-15T06:29:11.802Z,9.63
2018-02-15T06:31:39.264Z,11.50
2018-02-15T06:34:06.713Z,9.37
2018-02-15T06:36:34.167Z,8.07
2018-02-15T06:39:01.639Z,8.20
2018-02-15T06:41:29.085Z,8.53
2018-02-15T06:43:56.542Z,8.07
2018-02-15T06:46:23.985Z,8.83
2018-02-15T06:48:51.444Z,8.67
2018-02-15T06:51:18.893Z,8.83
2018-02-15T06:53:46.349Z,9.80
2018-02-15T06:56:14.560Z,9.17
2018-02-15T06:58:42.014Z,11.73
2018-02-15T07:01:09.480Z,10.73
2018-02-15T07:03:36.934Z,11.70
2018-02-15T07:06:04.397Z,11.67
2018-02-15T07:08:31.848Z,13.63
2018-02-15T07:10:59.309Z,12.57
2018-02-15T07:13:26.803Z,11.23
2018-02-15T07:15:54.236Z,11.13
2018-02-15T07:18:21.693Z,11.00
2018-02-15T07:20:49.158Z,10.73
2018-02-15T07:23:16.613Z,11.40
2018-02-15T07:25:44.079Z,10.77
2018-02-15T07:28:11.529Z,12.10
2018-02-15T07:30:38.995Z,11.40
2018-02-15T07:33:06.455Z,11.63
2018-02-15T07:35:33.905Z,13.40
2018-02-15T07:38:01.365Z,10.93
2018-02-15T07:40:28.826Z,10.50
2018-02-15T07:42:56.290Z,11.80
2018-02-15T07:45:24.504Z,18.63
2018-02-15T07:47:51.960Z,13.73
2018-02-15T07:50:19.413Z,12.50
2018-02-15T07:52:46.872Z,15.57
2018-02-15T07:55:14.338Z,14.17
2018-02-15T07:57:41.799Z,13.07
2018-02-15T08:00:09.253Z,11.73
2018-02-15T08:02:36.716Z,12.53
2018-02-15T08:05:04.170Z,11.60
2018-02-15T08:07:31.627Z,11.97
2018-02-15T08:09:59.078Z,9.67
2018-02-15T08:12:26.547Z,9.67
2018-02-15T08:14:54.013Z,9.10
2018-02-15T08:17:21.460Z,8.90
2018-02-15T08:19:48.908Z,9.47
2018-02-15T08:22:16.362Z,9.07
2018-02-15T08:24:43.822Z,11.30
2018-02-15T08:27:11.288Z,9.20
2018-02-15T08:29:38.737Z,9.87
2018-02-15T08:32:06.201Z,10.87
2018-02-15T08:34:33.650Z,12.27
2018-02-15T08:37:01.094Z,9.20
2018-02-15T08:39:28.553Z,10.87
2018-02-15T08:41:56.010Z,10.73
2018-02-15T08:44:23.465Z,11.93
2018-02-15T08:46:50.930Z,11.40
2018-02-15T08:49:18.384Z,12.60
2018-02-15T08:51:45.840Z,11.73
2018-02-15T08:54:13.305Z,10.43
2018-02-15T08:56:40.753Z,11.73
2018-02-15T08:59:08.216Z,12.00
2018-02-15T09:01:35.661Z,10.77
2018-02-15T09:04:03.116Z,12.47
2018-02-15T09:06:30.581Z,12.90
2018-02-15T09:08:58.036Z,12.93
2018-02-15T09:11:25.485Z,10.03
2018-02-15T09:13:52.937Z,10.63
2018-02-15T09:16:20.399Z,9.83
2018-02-15T09:18:47.859Z,12.20
2018-02-15T09:21:15.304Z,13.67
2018-02-15T09:23:42.764Z,11.80
2018-02-15T09:26:10.232Z,12.53
2018-02-15T09:28:37.689Z,11.90
2018-02-15T09:31:05.136Z,10.80
2018-02-15T09:33:32.609Z,10.70
2018-02-15T09:36:00.082Z,11.23
2018-02-15T09:38:27.545Z,12.13
2018-02-15T09:40:55.002Z,10.63
2018-02-15T09:43:22.458Z,10.83
2018-02-15T09:45:49.920Z,11.20
2018-02-15T09:48:17.377Z,13.67
2018-02-15T09:50:44.842Z,13.03
2018-02-15T09:53:13.056Z,9.97
2018-02-15T09:55:40.513Z,11.23
2018-02-15T09:58:07.964Z,13.23
2018-02-15T10:00:35.429Z,14.80
2018-02-15T10:03:02.884Z,13.90
2018-02-15T10:05:30.353Z,13.13
2018-02-15T10:07:57.801Z,13.17
2018-02-15T10:10:25.273Z,11.73
2018-02-15T10:12:52.723Z,11.77
2018-02-15T10:15:20.213Z,11.40
2018-02-15T10:17:47.713Z,13.83
2018-02-15T10:20:15.168Z,11.53
2018-02-15T10:22:42.620Z,11.60
2018-02-15T10:25:10.080Z,12.33
2018-02-15T10:27:37.534Z,12.63
2018-02-15T10:30:04.996Z,12.50
2018-02-15T10:32:32.449Z,14.90
2018-02-15T10:34:59.905Z,12.70
2018-02-15T10:37:27.360Z,14.30
2018-02-15T10:39:54.824Z,17.57
2018-02-15T10:42:22.272Z,15.73
2018-02-15T10:44:49.737Z,14.20
2018-02-15T10:47:17.184Z,13.43
2018-02-15T10:49:44.645Z,15.33
2018-02-15T10:52:12.097Z,16.37
2018-02-15T10:54:39.561Z,17.00
2018-02-15T10:57:07.020Z,14.40
2018-02-15T10:59:34.460Z,12.97
2018-02-15T11:02:08.303Z,13.53
2018-02-15T11:04:35.770Z,15.23
2018-02-15T11:07:03.208Z,15.20
2018-02-15T11:09:30.669Z,15.37
2018-02-15T11:11:58.130Z,15.33
2018-02-15T11:14:25.581Z,13.60
2018-02-15T11:16:53.076Z,22.20
2018-02-15T11:19:20.497Z,19.47
2018-02-15T11:21:47.965Z,16.40
2018-02-15T11:24:15.408Z,16.17
2018-02-15T11:26:42.864Z,16.53
2018-02-15T11:29:10.316Z,14.73
2018-02-15T11:31:37.774Z,15.37
2018-02-15T11:34:05.221Z,13.53
2018-02-15T11:36:32.686Z,13.80
2018-02-15T11:39:00.139Z,13.40
2018-02-15T11:41:27.592Z,16.03
2018-02-15T11:43:55.045Z,13.90
2018-02-15T11:46:22.509Z,13.10
2018-02-15T11:48:50.010Z,13.10
2018-02-15T11:51:17.457Z,12.60
2018-02-15T11:53:44.941Z,13.00
2018-02-15T11:56:12.388Z,13.63
2018-02-15T11:58:39.838Z,15.57
2018-02-15T12:01:07.290Z,12.13
2018-02-15T12:03:34.744Z,13.10
2018-02-15T12:06:02.197Z,14.97
2018-02-15T12:08:29.652Z,13.57
2018-02-15T12:10:57.104Z,15.43
2018-02-15T12:13:24.560Z,13.80
2018-02-15T12:15:52.013Z,14.77
2018-02-15T12:18:19.473Z,16.60
2018-02-15T12:20:46.924Z,16.00
2018-02-15T12:23:14.380Z,14.50
2018-02-15T12:25:41.842Z,15.20
2018-02-15T12:28:10.073Z,16.90
2018-02-15T12:30:37.520Z,18.03
2018-02-15T12:33:05.745Z,16.70
2018-02-15T12:35:33.200Z,17.03
2018-02-15T12:38:00.692Z,16.30
2018-02-15T12:40:28.108Z,17.07
2018-02-15T12:42:55.568Z,20.33
2018-02-15T12:45:23.024Z,19.90
2018-02-15T12:47:50.484Z,17.70
2018-02-15T12:50:17.942Z,21.57
2018-02-15T12:52:45.417Z,17.07
2018-02-15T12:55:12.857Z,18.07
2018-02-15T12:57:40.312Z,19.50
2018-02-15T13:00:07.765Z,17.40
2018-02-15T13:02:35.220Z,19.30
2018-02-15T13:05:02.681Z,20.30
2018-02-15T13:07:30.128Z,19.57
2018-02-15T13:09:57.590Z,18.40
2018-02-15T13:12:36.971Z,20.57
2018-02-15T13:15:17.232Z,22.97
2018-02-15T13:17:45.472Z,21.37
2018-02-15T13:20:18.912Z,21.60
2018-02-15T13:22:49.288Z,23.20
2018-02-15T13:25:16.741Z,19.97
2018-02-15T13:27:56.004Z,21.53
2018-02-15T13:30:23.458Z,22.77
2018-02-15T13:32:50.912Z,21.07
2018-02-15T13:35:18.373Z,20.73
2018-02-15T13:37:45.831Z,21.13
2018-02-15T13:40:13.296Z,21.20
2018-02-15T13:42:41.513Z,19.07
2018-02-15T13:45:08.973Z,20.00
2018-02-15T13:47:36.425Z,19.50
2018-02-15T13:50:03.881Z,21.07
2018-02-15T13:52:31.336Z,22.23
2018-02-15T13:54:58.796Z,20.30
2018-02-15T13:57:26.252Z,18.57
2018-02-15T13:59:53.708Z,19.30
2018-02-15T14:02:21.164Z,19.97
2018-02-15T14:04:48.617Z,20.33
2018-02-15T14:07:16.073Z,18.80
2018-02-15T14:09:43.532Z,19.83
2018-02-15T14:12:10.989Z,21.90
2018-02-15T14:14:38.452Z,20.47
2018-02-15T14:17:05.900Z,21.03
2018-02-15T14:19:33.365Z,19.97
2018-02-15T14:22:00.822Z,19.53
2018-02-15T14:24:28.287Z,21.97
2018-02-15T14:26:55.753Z,20.50
2018-02-15T14:29:23.209Z,21.40
2018-02-15T14:31:50.677Z,20.60
2018-02-15T14:34:18.132Z,21.60
2018-02-15T14:36:45.588Z,20.17
2018-02-15T14:39:13.041Z,22.33
2018-02-15T14:41:40.505Z,22.30
2018-02-15T14:44:07.952Z,20.57
2018-02-15T14:46:35.408Z,19.33
2018-02-15T14:49:02.861Z,19.60
2018-02-15T14:51:30.312Z,20.20
2018-02-15T14:53:57.764Z,18.83
2018-02-15T14:56:25.229Z,18.63
2018-02-15T14:58:52.684Z,18.53
2018-02-15T15:01:20.150Z,20.37
2018-02-15T15:03:47.596Z,20.33
2018-02-15T15:06:15.061Z,20.53
2018-02-15T15:08:42.516Z,19.80
2018-02-15T15:11:09.972Z,18.97
2018-02-15T15:13:37.432Z,19.53
2018-02-15T15:16:04.888Z,19.40
2018-02-15T15:18:32.349Z,20.53
2018-02-15T15:20:59.809Z,21.53
2018-02-15T15:23:27.249Z,20.50
2018-02-15T15:25:54.704Z,20.37
2018-02-15T15:28:22.157Z,19.77
2018-02-15T15:30:50.392Z,21.10
2018-02-15T15:33:18.604Z,24.67
2018-02-15T15:35:46.061Z,24.07
2018-02-15T15:38:13.524Z,22.70
2018-02-15T15:40:40.986Z,23.43
2018-02-15T15:43:08.444Z,21.20
2018-02-15T15:45:35.892Z,24.40
2018-02-15T15:48:03.354Z,22.93
2018-02-15T15:50:30.810Z,23.10
2018-02-15T15:52:58.268Z,22.70
2018-02-15T15:55:25.758Z,24.17
2018-02-15T15:57:53.981Z,21.10
2018-02-15T16:00:21.445Z,27.13
2018-02-15T16:02:48.914Z,28.00
2018-02-15T16:05:16.365Z,25.33
2018-02-15T16:07:43.832Z,23.83
2018-02-15T16:10:11.285Z,25.07
2018-02-15T16:12:38.745Z,22.50
2018-02-15T16:15:06.197Z,21.60
2018-02-15T16:17:33.658Z,24.00
2018-02-15T16:20:01.113Z,23.00
2018-02-15T16:22:28.569Z,22.53
2018-02-15T16:24:56.027Z,24.17
2018-02-15T16:27:23.489Z,22.60
2018-02-15T16:29:50.945Z,25.30
2018-02-15T16:32:18.405Z,23.23
2018-02-15T16:34:45.865Z,25.70
2018-02-15T16:37:13.325Z,25.83
2018-02-15T16:39:40.773Z,25.40
2018-02-15T16:42:08.233Z,26.00
2018-02-15T16:44:35.689Z,24.30
2018-02-15T16:47:03.159Z,24.93
2018-02-15T16:49:30.620Z,23.93
2018-02-15T16:51:58.074Z,27.03
2018-02-15T16:54:25.528Z,26.93
2018-02-15T16:56:52.985Z,23.97
2018-02-15T16:59:20.441Z,24.87
2018-02-15T17:01:47.901Z,22.50
2018-02-15T17:04:15.349Z,24.03
2018-02-15T17:06:42.805Z,22.23
2018-02-15T17:09:10.264Z,22.23
2018-02-15T17:11:37.716Z,21.87
2018-02-15T17:14:05.189Z,21.37
2018-02-15T17:16:33.409Z,23.17
2018-02-15T17:19:00.868Z,24.83
2018-02-15T17:21:28.317Z,27.40
2018-02-15T17:23:55.780Z,27.77
2018-02-15T17:26:23.244Z,26.67
2018-02-15T17:28:50.716Z,31.53
2018-02-15T17:31:18.169Z,38.40
2018-02-15T17:33:45.629Z,35.33
2018-02-15T17:36:13.080Z,30.37
2018-02-15T17:38:40.570Z,43.77
2018-02-15T17:41:08.017Z,41.17
2018-02-15T17:43:35.469Z,34.27
2018-02-15T17:46:02.921Z,35.33
2018-02-15T17:48:30.377Z,32.03
2018-02-15T17:50:57.827Z,28.07
2018-02-15T17:53:25.285Z,27.60
2018-02-15T17:55:52.738Z,27.57
2018-02-15T17:58:20.197Z,31.17
2018-02-15T18:00:47.653Z,31.03
2018-02-15T18:03:15.874Z,27.00
2018-02-15T18:05:43.325Z,28.53
2018-02-15T18:08:10.800Z,26.57
2018-02-15T18:10:38.266Z,24.10
2018-02-15T18:13:05.724Z,25.90
2018-02-15T18:15:33.185Z,24.60
2018-02-15T18:18:00.653Z,29.30
2018-02-15T18:20:28.098Z,29.77
2018-02-15T18:22:55.555Z,39.17
2018-02-15T18:25:23.019Z,32.47
2018-02-15T18:27:50.473Z,30.97
2018-02-15T18:30:17.932Z,31.73
2018-02-15T18:32:45.381Z,28.40
2018-02-15T18:35:12.845Z,31.17
2018-02-15T18:37:40.296Z,29.60
2018-02-15T18:40:07.762Z,30.80
2018-02-15T18:42:35.213Z,29.37
2018-02-15T18:45:02.680Z,27.70
2018-02-15T18:47:30.129Z,25.80
2018-02-15T18:49:57.589Z,25.53
2018-02-15T18:52:25.040Z,25.00
2018-02-15T18:54:52.492Z,25.37
2018-02-15T18:57:19.953Z,32.03
2018-02-15T18:59:47.413Z,32.60
2018-02-15T19:02:14.865Z,30.53
2018-02-15T19:04:42.328Z,26.20
2018-02-15T19:07:09.785Z,28.70
2018-02-15T19:09:37.248Z,28.37
2018-02-15T19:12:04.691Z,28.90
2018-02-15T19:14:32.153Z,26.50
2018-02-15T19:16:59.601Z,27.70
2018-02-15T19:19:27.061Z,28.53
2018-02-15T19:21:54.520Z,28.07
2018-02-15T19:24:22.018Z,33.40
2018-02-15T19:26:49.477Z,30.43
2018-02-15T19:29:17.701Z,32.40
2018-02-15T19:31:45.156Z,32.00
2018-02-15T19:34:12.613Z,29.87
2018-02-15T19:36:40.065Z,30.70
2018-02-15T19:39:07.524Z,31.03
2018-02-15T19:41:34.984Z,30.77
2018-02-15T19:44:02.430Z,32.00
2018-02-15T19:46:29.893Z,31.03
2018-02-15T19:48:57.349Z,34.10
2018-02-15T19:51:24.858Z,33.33
2018-02-15T19:53:52.272Z,34.53
2018-02-15T19:56:19.734Z,33.23
2018-02-15T19:58:47.186Z,32.40
2018-02-15T20:01:14.653Z,32.57
2018-02-15T20:03:42.125Z,33.13
2018-02-15T20:06:09.585Z,33.57
2018-02-15T20:08:37.037Z,37.13
2018-02-15T20:11:04.502Z,36.23
2018-02-15T20:13:31.954Z,33.03
2018-02-15T20:15:59.419Z,34.37
2018-02-15T20:18:26.872Z,32.27
2018-02-15T20:20:54.345Z,33.77
2018-02-15T20:23:21.792Z,32.60
2018-02-15T20:25:55.037Z,32.57
2018-02-15T20:28:26.500Z,32.30
2018-02-15T20:30:53.982Z,30.07
2018-02-15T20:33:21.428Z,33.60
2018-02-15T20:35:48.885Z,30.90
2018-02-15T20:38:22.092Z,29.50
2018-02-15T20:40:49.548Z,33.77
2018-02-15T20:43:17.030Z,33.63
2018-02-15T20:45:45.265Z,39.10
2018-02-15T20:48:12.714Z,35.13
2018-02-15T20:50:46.020Z,30.93
2018-02-15T20:53:19.184Z,33.50
2018-02-15T20:55:46.641Z,30.87
2018-02-15T20:58:14.094Z,28.10
2018-02-15T21:03:15.538Z,30.13
2018-02-15T21:05:43.037Z,30.47
2018-02-15T21:08:11.261Z,34.33
2018-02-15T21:10:39.497Z,30.17
2018-02-15T21:13:07.713Z,30.83
2018-02-15T21:15:35.171Z,34.37
2018-02-15T21:18:02.640Z,31.77
2018-02-15T21:20:30.116Z,29.07
2018-02-15T21:22:57.582Z,28.07
2018-02-15T21:25:25.076Z,31.90
2018-02-15T21:27:53.306Z,30.97
2018-02-15T21:30:20.756Z,31.43
2018-02-15T21:32:48.248Z,31.63
2018-02-15T21:35:15.697Z,32.67
2018-02-15T21:37:43.152Z,30.20
2018-02-15T21:40:10.613Z,30.33
2018-02-15T21:42:38.084Z,30.10
2018-02-15T21:45:05.580Z,34.80
2018-02-15T21:47:33.029Z,49.23
2018-02-15T21:50:00.484Z,40.80
2018-02-15T21:52:27.949Z,39.70
2018-02-15T21:54:55.406Z,39.90
2018-02-15T21:57:22.870Z,42.13
2018-02-15T21:59:50.340Z,34.87
2018-02-15T22:02:17.800Z,36.93
2018-02-15T22:04:45.252Z,36.30
2018-02-15T22:07:13.389Z,34.33
2018-02-15T22:09:40.914Z,32.13
2018-02-15T22:12:08.368Z,29.10
2018-02-15T22:14:35.826Z,33.03
2018-02-15T22:17:03.289Z,28.33
2018-02-15T22:19:30.736Z,30.57
2018-02-15T22:21:58.195Z,27.50
2018-02-15T22:24:25.660Z,33.00
2018-02-15T22:26:53.129Z,32.50
2018-02-15T22:29:20.581Z,31.07
2018-02-15T22:31:48.028Z,33.77
2018-02-15T22:34:15.493Z,30.53
2018-02-15T22:36:42.941Z,26.60
2018-02-15T22:39:10.396Z,30.07
2018-02-15T22:41:37.848Z,34.07
2018-02-15T22:44:05.305Z,30.90
2018-02-15T22:46:32.763Z,30.70
2018-02-15T22:49:00.217Z,30.80
2018-02-15T22:51:27.660Z,29.43
2018-02-15T22:53:55.121Z,26.57
2018-02-15T22:56:22.576Z,31.20
2018-02-15T22:58:50.037Z,27.50
2018-02-15T23:01:18.257Z,26.43
2018-02-15T23:03:45.708Z,27.07
2018-02-15T23:06:13.933Z,23.17
2018-02-15T23:08:41.385Z,22.70
2018-02-15T23:11:08.838Z,21.17
2018-02-15T23:13:36.296Z,23.40
2018-02-15T23:16:03.750Z,23.27
2018-02-15T23:18:31.220Z,24.37
2018-02-15T23:20:58.677Z,25.50
2018-02-15T23:23:26.140Z,23.20
2018-02-15T23:25:53.593Z,23.63
2018-02-15T23:28:21.060Z,22.47
2018-02-15T23:30:48.505Z,21.07
2018-02-15T23:33:16.735Z,19.50
2018-02-15T23:35:44.185Z,21.63
2018-02-15T23:38:11.640Z,19.83
2018-02-15T23:40:39.868Z,18.53
2018-02-15T23:43:07.321Z,21.63
2018-02-15T23:45:34.780Z,19.17
2018-02-15T23:48:02.233Z,21.13
2018-02-15T23:50:29.693Z,18.57
2018-02-15T23:52:57.140Z,17.13
2018-02-15T23:55:24.605Z,18.83
2018-02-15T23:57:52.057Z,17.80
